createdAt,value
2022-09-09T00:02:22.250Z,58.39
2022-09-09T00:05:03.207Z,58.37
2022-09-09T00:07:43.442Z,58.72
2022-09-09T00:10:24.959Z,58.76
2022-09-09T00:13:00.922Z,58.24
2022-09-09T00:15:35.856Z,58.93
2022-09-09T00:18:10.714Z,58.59
2022-09-09T00:20:47.195Z,58.34
2022-09-09T00:23:20.728Z,58.91
2022-09-09T00:25:56.359Z,58.42
2022-09-09T00:28:28.306Z,58.71
2022-09-09T00:30:58.500Z,59.13
2022-09-09T00:33:28.892Z,59.16
2022-09-09T00:36:00.652Z,59.09
2022-09-09T00:38:36.100Z,58.74
2022-09-09T00:41:09.755Z,59.29
2022-09-09T00:43:39.799Z,59.47
2022-09-09T00:46:30.196Z,58.99
2022-09-09T00:49:05.742Z,59.01
2022-09-09T00:51:51.343Z,59.42
2022-09-09T00:54:30.737Z,59.73
2022-09-09T00:57:08.677Z,59.00
2022-09-09T00:59:48.123Z,59.47
2022-09-09T01:02:24.391Z,59.65
2022-09-09T01:04:52.411Z,59.67
2022-09-09T01:07:21.634Z,59.85
2022-09-09T01:09:56.931Z,60.10
2022-09-09T01:12:36.428Z,60.06
2022-09-09T01:15:11.258Z,60.18
2022-09-09T01:17:48.892Z,59.82
2022-09-09T01:20:22.973Z,60.15
2022-09-09T01:23:06.920Z,60.23
2022-09-09T01:26:15.576Z,60.37
2022-09-09T01:28:46.177Z,60.16
2022-09-09T01:31:19.332Z,60.47
2022-09-09T01:33:47.497Z,60.58
2022-09-09T01:36:24.803Z,60.80
2022-09-09T01:38:52.995Z,60.72
2022-09-09T01:41:22.554Z,60.63
2022-09-09T01:43:52.893Z,60.70
2022-09-09T01:46:24.254Z,60.79
2022-09-09T01:48:54.373Z,60.64
2022-09-09T01:51:22.234Z,61.30
2022-09-09T01:53:50.097Z,60.90
2022-09-09T01:56:34.032Z,61.23
2022-09-09T01:59:16.031Z,60.89
2022-09-09T02:02:01.030Z,61.27
2022-09-09T02:04:39.188Z,61.46
2022-09-09T02:07:17.376Z,61.00
2022-09-09T02:09:49.143Z,61.65
2022-09-09T02:12:22.424Z,61.36
2022-09-09T02:14:54.835Z,61.57
2022-09-09T02:17:29.803Z,61.76
2022-09-09T02:20:04.259Z,61.51
2022-09-09T02:22:36.013Z,61.87
2022-09-09T02:25:06.435Z,61.45
2022-09-09T02:27:36.419Z,61.89
2022-09-09T02:30:06.698Z,61.80
2022-09-09T02:32:38.245Z,61.74
2022-09-09T02:35:11.437Z,62.04
2022-09-09T02:37:41.352Z,61.91
2022-09-09T02:40:14.378Z,61.73
2022-09-09T02:42:44.666Z,62.44
2022-09-09T02:45:15.098Z,62.14
2022-09-09T02:47:50.709Z,62.51
2022-09-09T02:50:22.642Z,62.28
2022-09-09T02:53:04.161Z,62.67
2022-09-09T02:55:40.807Z,62.58
2022-09-09T02:58:13.862Z,62.75
2022-09-09T03:00:42.126Z,62.83
2022-09-09T03:03:10.859Z,62.41
2022-09-09T03:05:39.834Z,62.31
2022-09-09T03:08:08.031Z,63.09
2022-09-09T03:10:38.102Z,62.67
2022-09-09T03:13:06.445Z,63.41
2022-09-09T03:15:36.194Z,62.98
2022-09-09T03:18:04.590Z,62.72
2022-09-09T03:20:33.107Z,63.02
2022-09-09T03:23:03.400Z,63.01
2022-09-09T03:25:31.862Z,62.88
2022-09-09T03:27:59.938Z,62.92
2022-09-09T03:30:29.467Z,63.69
2022-09-09T03:32:59.033Z,63.31
2022-09-09T03:35:27.156Z,63.85
2022-09-09T03:37:56.713Z,63.28
2022-09-09T03:40:24.688Z,63.14
2022-09-09T03:42:52.489Z,63.31
2022-09-09T03:45:20.847Z,63.34
2022-09-09T03:47:48.813Z,64.23
2022-09-09T03:50:25.846Z,63.89
2022-09-09T03:52:53.939Z,63.69
2022-09-09T03:55:21.827Z,63.78
2022-09-09T03:57:49.639Z,64.04
2022-09-09T04:00:20.454Z,63.89
2022-09-09T04:02:48.340Z,64.12
2022-09-09T04:05:16.602Z,64.49
2022-09-09T04:07:45.948Z,64.06
2022-09-09T04:10:14.495Z,64.18
2022-09-09T04:12:43.104Z,64.30
2022-09-09T04:15:12.651Z,64.36
2022-09-09T04:17:40.813Z,64.43
2022-09-09T04:20:12.296Z,64.52
2022-09-09T04:22:40.709Z,64.45
2022-09-09T04:30:42.461Z,64.83
2022-09-09T04:33:11.721Z,64.74
2022-09-09T04:35:40.758Z,64.40
2022-09-09T04:38:10.655Z,64.60
2022-09-09T04:40:41.605Z,64.76
2022-09-09T04:43:14.210Z,64.73
2022-09-09T04:45:42.691Z,64.63
2022-09-09T04:48:11.655Z,65.47
2022-09-09T04:50:39.509Z,64.89
2022-09-09T04:53:09.005Z,65.36
2022-09-09T04:55:37.352Z,65.34
2022-09-09T04:58:07.687Z,65.49
2022-09-09T05:00:36.665Z,65.91
2022-09-09T05:03:06.535Z,65.54
2022-09-09T05:05:35.806Z,65.29
2022-09-09T05:08:05.184Z,65.32
2022-09-09T05:10:33.699Z,65.71
2022-09-09T05:13:02.003Z,65.50
2022-09-09T05:15:31.428Z,66.14
2022-09-09T05:17:59.999Z,65.54
2022-09-09T05:20:27.949Z,65.20
2022-09-09T05:22:56.302Z,65.58
2022-09-09T05:25:26.966Z,65.63
2022-09-09T05:27:55.925Z,66.16
2022-09-09T05:30:27.380Z,66.00
2022-09-09T05:32:59.265Z,66.11
2022-09-09T05:35:27.558Z,66.19
2022-09-09T05:37:57.040Z,66.34
2022-09-09T05:40:25.212Z,65.60
2022-09-09T05:42:54.558Z,66.24
2022-09-09T05:45:22.367Z,66.00
2022-09-09T05:47:54.978Z,66.06
2022-09-09T05:50:25.981Z,66.36
2022-09-09T05:52:56.847Z,66.66
2022-09-09T05:55:26.528Z,66.32
2022-09-09T05:57:54.667Z,66.67
2022-09-09T06:00:22.926Z,66.74
2022-09-09T06:02:53.866Z,66.98
2022-09-09T06:05:23.959Z,66.85
2022-09-09T06:07:56.154Z,67.24
2022-09-09T06:10:24.595Z,67.28
2022-09-09T06:12:55.387Z,67.07
2022-09-09T06:15:24.732Z,67.21
2022-09-09T06:17:56.588Z,67.34
2022-09-09T06:20:24.456Z,67.25
2022-09-09T06:22:52.425Z,67.33
2022-09-09T06:25:21.940Z,67.45
2022-09-09T06:27:51.827Z,67.60
2022-09-09T06:30:19.608Z,67.50
2022-09-09T06:32:48.027Z,67.77
2022-09-09T06:35:15.866Z,67.55
2022-09-09T06:37:47.344Z,67.38
2022-09-09T06:40:16.434Z,67.62
2022-09-09T06:42:45.925Z,67.58
2022-09-09T06:45:13.855Z,67.43
2022-09-09T06:47:42.134Z,67.49
2022-09-09T06:50:12.156Z,67.61
2022-09-09T06:52:40.045Z,67.71
2022-09-09T06:55:09.218Z,67.55
2022-09-09T06:57:38.030Z,67.71
2022-09-09T07:00:09.149Z,67.69
2022-09-09T07:02:40.660Z,67.47
2022-09-09T07:05:09.636Z,67.82
2022-09-09T07:07:38.106Z,67.25
2022-09-09T07:10:06.791Z,67.64
2022-09-09T07:12:34.609Z,67.34
2022-09-09T07:15:02.512Z,67.56
2022-09-09T07:17:31.983Z,67.65
2022-09-09T07:20:00.024Z,67.38
2022-09-09T07:22:30.048Z,67.33
2022-09-09T07:24:58.093Z,67.49
2022-09-09T07:27:26.415Z,67.43
2022-09-09T07:29:55.399Z,67.03
2022-09-09T07:32:23.608Z,67.34
2022-09-09T07:34:52.951Z,67.28
2022-09-09T07:37:22.956Z,67.26
2022-09-09T07:39:52.117Z,67.41
2022-09-09T07:42:20.552Z,67.30
2022-09-09T07:45:11.980Z,66.99
2022-09-09T07:47:40.269Z,66.88
2022-09-09T07:50:12.665Z,67.23
2022-09-09T07:52:40.543Z,67.19
2022-09-09T07:55:08.520Z,67.12
2022-09-09T07:57:37.180Z,67.12
2022-09-09T08:00:06.766Z,66.86
2022-09-09T08:02:34.678Z,66.89
2022-09-09T08:05:02.552Z,66.66
2022-09-09T08:07:32.268Z,66.74
2022-09-09T08:10:00.108Z,66.71
2022-09-09T08:12:28.367Z,66.56
2022-09-09T08:14:56.399Z,66.76
2022-09-09T08:17:24.331Z,66.46
2022-09-09T08:19:52.464Z,66.61
2022-09-09T08:22:20.436Z,66.62
2022-09-09T08:24:49.594Z,66.41
2022-09-09T08:27:17.684Z,66.46
2022-09-09T08:29:45.660Z,66.26
2022-09-09T08:32:13.889Z,66.12
2022-09-09T08:34:46.562Z,66.31
2022-09-09T08:37:14.668Z,66.16
2022-09-09T08:39:42.552Z,66.09
2022-09-09T08:42:26.146Z,65.67
2022-09-09T08:45:11.443Z,65.88
2022-09-09T08:47:48.181Z,65.97
2022-09-09T08:50:25.842Z,65.76
2022-09-09T08:53:00.531Z,65.51
2022-09-09T08:55:37.472Z,65.72
2022-09-09T08:58:13.607Z,65.44
2022-09-09T09:00:50.680Z,65.59
2022-09-09T09:03:30.145Z,65.20
2022-09-09T09:06:06.787Z,65.55
2022-09-09T09:08:45.005Z,65.33
2022-09-09T09:11:13.224Z,65.37
2022-09-09T09:13:47.967Z,65.31
2022-09-09T09:16:24.378Z,65.15
2022-09-09T09:18:54.194Z,65.03
2022-09-09T09:21:30.268Z,65.04
2022-09-09T09:23:59.683Z,65.26
2022-09-09T09:26:32.991Z,64.91
2022-09-09T09:29:05.903Z,64.97
2022-09-09T09:31:34.233Z,64.91
2022-09-09T09:34:03.489Z,64.84
2022-09-09T09:36:43.542Z,64.72
2022-09-09T09:42:06.428Z,64.65
2022-09-09T09:44:38.231Z,64.48
2022-09-09T09:47:12.110Z,64.42
2022-09-09T09:49:40.396Z,64.41
2022-09-09T09:52:09.316Z,64.21
2022-09-09T09:54:41.625Z,64.38
2022-09-09T09:57:12.402Z,64.18
2022-09-09T09:59:41.993Z,64.09
2022-09-09T10:02:28.239Z,64.07
2022-09-09T10:05:04.650Z,63.98
2022-09-09T10:07:33.979Z,63.99
2022-09-09T10:10:02.206Z,64.00
2022-09-09T10:12:48.728Z,63.75
2022-09-09T10:15:37.346Z,63.84
2022-09-09T10:18:22.527Z,63.67
2022-09-09T10:20:59.697Z,63.49
2022-09-09T10:23:45.452Z,63.58
2022-09-09T10:26:24.842Z,63.54
2022-09-09T10:29:07.555Z,63.88
2022-09-09T10:31:51.250Z,63.66
2022-09-09T10:34:37.710Z,63.80
2022-09-09T10:37:18.487Z,63.50
2022-09-09T10:39:46.439Z,63.60
2022-09-09T10:42:16.627Z,63.41
2022-09-09T10:44:56.685Z,63.26
2022-09-09T10:47:40.867Z,63.34
2022-09-09T10:50:50.394Z,62.97
2022-09-09T10:53:30.920Z,62.94
2022-09-09T10:56:05.415Z,63.35
2022-09-09T10:58:42.466Z,62.89
2022-09-09T11:01:18.266Z,62.68
2022-09-09T11:03:56.430Z,62.48
2022-09-09T11:06:31.119Z,62.30
2022-09-09T11:09:03.631Z,62.12
2022-09-09T11:11:36.841Z,61.89
2022-09-09T11:14:17.367Z,61.98
2022-09-09T11:16:52.614Z,61.58
2022-09-09T11:19:29.260Z,61.55
2022-09-09T11:22:01.089Z,61.19
2022-09-09T11:24:33.819Z,61.25
2022-09-09T11:27:10.334Z,61.37
2022-09-09T11:30:37.617Z,61.21
2022-09-09T11:33:35.966Z,61.15
2022-09-09T11:36:33.401Z,61.00
2022-09-09T11:39:09.373Z,60.74
2022-09-09T11:41:39.595Z,60.80
2022-09-09T11:44:15.061Z,60.68
2022-09-09T11:46:43.693Z,60.64
2022-09-09T11:49:29.262Z,60.40
2022-09-09T11:51:58.745Z,60.39
2022-09-09T11:54:33.248Z,60.39
2022-09-09T11:57:01.618Z,60.46
2022-09-09T11:59:31.724Z,60.24
2022-09-09T12:02:02.197Z,60.20
2022-09-09T12:04:34.525Z,59.97
2022-09-09T12:07:07.084Z,60.01
2022-09-09T12:09:49.389Z,59.91
2022-09-09T12:12:29.610Z,59.75
2022-09-09T12:15:21.879Z,59.56
2022-09-09T12:17:52.592Z,59.50
2022-09-09T12:20:22.714Z,59.54
2022-09-09T12:23:06.303Z,59.36
2022-09-09T12:25:46.074Z,59.47
2022-09-09T12:28:20.029Z,59.32
2022-09-09T12:30:56.266Z,59.32
2022-09-09T12:33:24.774Z,59.08
2022-09-09T12:35:57.752Z,59.11
2022-09-09T12:38:33.547Z,58.94
2022-09-09T12:41:02.019Z,58.85
2022-09-09T12:43:33.345Z,58.82
2022-09-09T12:46:04.991Z,58.84
2022-09-09T12:48:38.357Z,58.71
2022-09-09T12:51:16.507Z,58.55
2022-09-09T12:53:48.340Z,58.64
2022-09-09T12:56:24.140Z,58.61
2022-09-09T12:58:54.279Z,58.39
2022-09-09T13:01:25.494Z,58.61
2022-09-09T13:03:54.524Z,58.27
2022-09-09T13:06:28.879Z,58.37
2022-09-09T13:09:00.701Z,58.25
2022-09-09T13:11:51.561Z,58.20
2022-09-09T13:14:23.867Z,58.15
2022-09-09T13:16:58.813Z,58.06
2022-09-09T13:19:28.879Z,57.95
2022-09-09T13:21:57.509Z,57.95
2022-09-09T13:24:32.209Z,57.93
2022-09-09T13:27:02.908Z,57.87
2022-09-09T13:29:32.038Z,57.74
2022-09-09T13:32:07.354Z,57.74
2022-09-09T13:34:36.658Z,57.54
2022-09-09T13:37:07.816Z,57.62
2022-09-09T13:39:39.448Z,57.48
2022-09-09T13:42:08.152Z,57.52
2022-09-09T13:44:39.480Z,57.32
2022-09-09T13:47:20.061Z,57.40
2022-09-09T13:49:48.675Z,57.29
2022-09-09T13:52:19.954Z,57.15
2022-09-09T13:54:52.145Z,56.83
2022-09-09T13:57:22.380Z,57.17
2022-09-09T14:00:06.765Z,56.98
2022-09-09T14:02:35.945Z,57.03
2022-09-09T14:05:03.989Z,57.00
2022-09-09T14:07:33.077Z,57.03
2022-09-09T14:10:02.526Z,56.95
2022-09-09T14:12:30.427Z,56.83
2022-09-09T14:14:58.314Z,56.66
2022-09-09T14:17:26.288Z,56.55
2022-09-09T14:19:54.185Z,56.65
2022-09-09T14:22:22.887Z,56.67
2022-09-09T14:24:51.444Z,56.66
2022-09-09T14:27:20.880Z,56.56
2022-09-09T14:29:48.989Z,56.54
2022-09-09T14:32:16.870Z,56.54
2022-09-09T14:34:44.829Z,56.39
2022-09-09T14:37:17.832Z,56.34
2022-09-09T14:39:48.322Z,56.29
2022-09-09T14:42:16.695Z,56.40
2022-09-09T14:44:45.860Z,56.44
2022-09-09T14:47:14.272Z,56.36
2022-09-09T14:49:45.117Z,56.27
2022-09-09T14:52:14.701Z,56.19
2022-09-09T14:54:43.833Z,56.22
2022-09-09T14:57:11.825Z,56.19
2022-09-09T14:59:39.894Z,56.16
2022-09-09T15:02:10.918Z,56.08
2022-09-09T15:04:39.153Z,56.04
2022-09-09T15:07:07.194Z,56.03
2022-09-09T15:09:35.012Z,56.15
2022-09-09T15:12:04.078Z,56.11
2022-09-09T15:14:32.402Z,56.22
2022-09-09T15:17:00.703Z,56.20
2022-09-09T15:19:29.939Z,56.52
2022-09-09T15:21:57.991Z,56.44
2022-09-09T15:24:26.903Z,56.32
2022-09-09T15:26:54.847Z,56.08
2022-09-09T15:29:22.895Z,55.90
2022-09-09T15:31:50.787Z,55.88
2022-09-09T15:34:18.724Z,55.58
2022-09-09T15:36:48.428Z,55.39
2022-09-09T15:39:18.413Z,55.39
2022-09-09T15:41:47.944Z,55.21
2022-09-09T15:44:17.678Z,55.13
2022-09-09T15:46:47.890Z,55.06
2022-09-09T15:49:18.344Z,55.11
2022-09-09T15:51:53.231Z,55.00
2022-09-09T15:54:25.471Z,55.24
2022-09-09T15:56:59.152Z,55.07
2022-09-09T15:59:32.137Z,54.81
2022-09-09T16:02:03.540Z,54.99
2022-09-09T16:04:35.033Z,54.65
2022-09-09T16:07:06.340Z,54.84
2022-09-09T16:09:38.914Z,54.79
2022-09-09T16:12:13.772Z,54.55
2022-09-09T16:14:41.783Z,54.39
2022-09-09T16:17:12.723Z,54.70
2022-09-09T16:19:40.627Z,54.13
2022-09-09T16:22:10.448Z,54.27
2022-09-09T16:24:41.161Z,54.27
2022-09-09T16:27:09.553Z,54.01
2022-09-09T16:29:40.024Z,54.31
2022-09-09T16:32:12.114Z,54.23
2022-09-09T16:34:40.116Z,54.27
2022-09-09T16:37:09.283Z,54.20
2022-09-09T16:39:37.528Z,54.02
2022-09-09T16:42:05.909Z,54.03
2022-09-09T16:44:34.270Z,54.19
2022-09-09T16:47:02.185Z,54.34
2022-09-09T16:49:33.905Z,53.92
2022-09-09T16:52:02.017Z,53.88
2022-09-09T16:54:34.102Z,54.02
2022-09-09T16:57:02.100Z,53.94
2022-09-09T16:59:30.049Z,53.90
2022-09-09T17:01:58.197Z,53.85
2022-09-09T17:04:28.965Z,53.75
2022-09-09T17:06:58.581Z,53.85
2022-09-09T17:09:30.070Z,53.89
2022-09-09T17:12:01.028Z,53.73
2022-09-09T17:14:29.019Z,53.77
2022-09-09T17:17:05.427Z,53.73
2022-09-09T17:19:41.747Z,53.82
2022-09-09T17:22:17.850Z,53.68
2022-09-09T17:24:46.409Z,53.68
2022-09-09T17:27:15.988Z,53.59
2022-09-09T17:29:43.948Z,53.66
2022-09-09T17:32:11.830Z,53.65
2022-09-09T17:34:49.255Z,53.50
2022-09-09T17:37:17.362Z,53.57
2022-09-09T17:39:45.644Z,53.38
2022-09-09T17:42:15.331Z,53.51
2022-09-09T17:44:43.362Z,53.75
2022-09-09T17:47:11.200Z,53.33
2022-09-09T17:49:40.910Z,53.30
2022-09-09T17:52:08.820Z,53.48
2022-09-09T17:54:37.235Z,53.43
2022-09-09T17:57:07.399Z,53.09
2022-09-09T17:59:37.185Z,53.27
2022-09-09T18:02:06.603Z,53.72
2022-09-09T18:04:37.179Z,53.06
2022-09-09T18:07:06.535Z,53.56
2022-09-09T18:09:34.733Z,53.43
2022-09-09T18:12:03.016Z,53.17
2022-09-09T18:14:32.877Z,53.42
2022-09-09T18:17:04.272Z,53.53
2022-09-09T18:19:34.573Z,53.14
2022-09-09T18:22:05.027Z,53.71
2022-09-09T18:24:33.433Z,53.32
2022-09-09T18:27:01.651Z,53.06
2022-09-09T18:29:30.002Z,53.24
2022-09-09T18:31:58.106Z,53.20
2022-09-09T18:34:30.370Z,52.98
2022-09-09T18:36:58.751Z,52.85
2022-09-09T18:39:28.640Z,53.42
2022-09-09T18:41:59.723Z,53.05
2022-09-09T18:44:30.220Z,53.32
2022-09-09T18:46:58.672Z,53.34
2022-09-09T18:49:28.314Z,53.01
2022-09-09T18:51:57.414Z,53.21
2022-09-09T18:54:39.303Z,53.28
2022-09-09T18:57:07.164Z,53.49
2022-09-09T18:59:41.761Z,53.20
2022-09-09T19:02:54.728Z,53.25
2022-09-09T19:05:24.190Z,53.07
2022-09-09T19:07:52.115Z,52.88
2022-09-09T19:10:20.185Z,53.16
2022-09-09T19:12:48.439Z,53.16
2022-09-09T19:15:16.798Z,53.11
2022-09-09T19:17:44.795Z,53.17
2022-09-09T19:20:12.895Z,53.06
2022-09-09T19:22:42.456Z,53.35
2022-09-09T19:25:10.391Z,53.34
2022-09-09T19:27:38.404Z,53.18
2022-09-09T19:30:07.484Z,53.17
2022-09-09T19:32:52.608Z,53.59
2022-09-09T19:35:21.554Z,53.55
2022-09-09T19:37:50.770Z,53.27
2022-09-09T19:40:21.121Z,53.35
2022-09-09T19:42:49.738Z,53.99
2022-09-09T19:45:17.721Z,53.66
2022-09-09T19:47:45.821Z,53.63
2022-09-09T19:50:13.853Z,53.41
2022-09-09T19:52:44.221Z,53.65
2022-09-09T19:55:13.661Z,53.58
2022-09-09T19:57:41.632Z,53.86
2022-09-09T20:00:11.128Z,53.69
2022-09-09T20:02:39.806Z,53.47
2022-09-09T20:05:08.813Z,53.63
2022-09-09T20:07:36.681Z,53.71
2022-09-09T20:10:04.781Z,53.85
2022-09-09T20:12:33.966Z,53.90
2022-09-09T20:15:01.751Z,53.84
2022-09-09T20:17:30.066Z,53.58
2022-09-09T20:19:58.035Z,54.02
2022-09-09T20:22:26.034Z,53.90
2022-09-09T20:24:54.076Z,53.98
2022-09-09T20:27:21.999Z,54.26
2022-09-09T20:30:16.118Z,54.13
2022-09-09T20:32:44.070Z,53.77
2022-09-09T20:35:17.014Z,53.82
2022-09-09T20:37:47.638Z,53.77
2022-09-09T20:40:15.613Z,54.14
2022-09-09T20:42:43.545Z,54.05
2022-09-09T20:45:16.195Z,54.14
2022-09-09T20:47:45.874Z,54.17
2022-09-09T20:50:15.513Z,54.45
2022-09-09T20:52:43.726Z,54.27
2022-09-09T20:55:11.728Z,54.86
2022-09-09T20:57:39.600Z,54.29
2022-09-09T21:00:08.977Z,54.65
2022-09-09T21:02:37.147Z,54.16
2022-09-09T21:05:07.598Z,54.72
2022-09-09T21:07:35.689Z,54.49
2022-09-09T21:10:03.671Z,54.47
2022-09-09T21:12:31.565Z,54.34
2022-09-09T21:15:00.909Z,54.57
2022-09-09T21:17:28.933Z,54.96
2022-09-09T21:19:57.534Z,54.71
2022-09-09T21:22:29.435Z,54.80
2022-09-09T21:24:57.627Z,54.47
2022-09-09T21:27:26.800Z,54.54
2022-09-09T21:29:54.977Z,54.63
2022-09-09T21:32:22.904Z,54.52
2022-09-09T21:34:50.840Z,54.79
2022-09-09T21:37:19.225Z,55.10
2022-09-09T21:39:48.557Z,54.89
2022-09-09T21:42:16.545Z,54.61
2022-09-09T21:44:44.474Z,54.69
2022-09-09T21:47:13.455Z,55.01
2022-09-09T21:49:41.806Z,54.90
2022-09-09T21:52:09.673Z,54.69
2022-09-09T21:54:38.337Z,55.23
2022-09-09T21:57:08.057Z,55.40
2022-09-09T21:59:36.600Z,54.96
2022-09-09T22:02:06.832Z,55.56
2022-09-09T22:04:37.361Z,55.28
2022-09-09T22:07:06.892Z,55.36
2022-09-09T22:09:35.177Z,55.40
2022-09-09T22:12:03.695Z,55.92
2022-09-09T22:14:33.179Z,56.00
2022-09-09T22:17:01.058Z,55.41
2022-09-09T22:19:29.319Z,55.59
2022-09-09T22:21:57.188Z,55.62
2022-09-09T22:24:27.515Z,55.83
2022-09-09T22:26:56.044Z,56.16
2022-09-09T22:29:24.346Z,55.72
2022-09-09T22:31:55.740Z,55.66
2022-09-09T22:34:24.122Z,56.20
2022-09-09T22:36:52.248Z,55.68
2022-09-09T22:39:20.526Z,56.23
2022-09-09T22:41:49.110Z,55.63
2022-09-09T22:44:16.993Z,55.72
2022-09-09T22:46:46.231Z,56.11
2022-09-09T22:49:15.732Z,55.83
2022-09-09T22:51:44.002Z,56.41
2022-09-09T22:54:11.873Z,56.35
2022-09-09T22:56:39.876Z,56.34
2022-09-09T22:59:07.795Z,56.78
2022-09-09T23:01:36.313Z,56.58
2022-09-09T23:04:04.733Z,56.29
2022-09-09T23:06:34.100Z,56.76
2022-09-09T23:09:03.962Z,56.43
2022-09-09T23:11:34.410Z,56.35
2022-09-09T23:14:03.656Z,56.40
2022-09-09T23:16:34.421Z,56.56
2022-09-09T23:19:02.992Z,56.70
2022-09-09T23:21:32.009Z,56.94
2022-09-09T23:24:02.181Z,56.76
2022-09-09T23:26:30.257Z,57.03
2022-09-09T23:28:59.844Z,56.66
2022-09-09T23:31:29.666Z,56.69
2022-09-09T23:33:58.362Z,56.76
2022-09-09T23:36:27.763Z,56.64
2022-09-09T23:38:56.174Z,57.18
2022-09-09T23:41:25.740Z,57.42
2022-09-09T23:43:54.721Z,56.97
2022-09-09T23:46:27.406Z,57.22
2022-09-09T23:48:57.492Z,57.46
2022-09-09T23:51:28.208Z,57.10
2022-09-09T23:53:58.305Z,57.10
2022-09-09T23:56:29.896Z,56.86
2022-09-09T23:58:57.842Z,57.41
